Time;durP1;ratioP1;P1;durP2;ratioP2;P2;SDS_P1;SDS_P2;PMS_P1;PMS_P2;Temp;Humidity;BMP_temperature;BMP_pressure;BME280_temperature;BME280_humidity;BME280_pressure;Samples;Min_cycle;Max_cycle;Signal;HPM_P1;HPM_P2
2022/10/22 00:01:17;;;;;;;6.38;2.00;;;16.20;99.90;;;;;;5070148;28;20409;-32
2022/10/22 00:03:42;;;;;;;6.88;2.10;;;16.10;99.90;;;;;;5069699;28;20028;-31
2022/10/22 00:06:08;;;;;;;5.93;1.98;;;16.20;99.90;;;;;;5069207;28;20044;-30
2022/10/22 00:08:34;;;;;;;7.00;1.80;;;16.20;99.90;;;;;;5071418;28;20489;-30
2022/10/22 00:11:08;;;;;;;5.93;2.55;;;16.20;99.90;;;;;;5067699;28;20021;-38
2022/10/22 00:13:33;;;;;;;6.60;2.38;;;16.30;99.90;;;;;;5069929;28;20390;-32
2022/10/22 00:15:59;;;;;;;6.00;2.00;;;16.30;99.90;;;;;;5071312;28;20029;-32
2022/10/22 00:18:25;;;;;;;7.75;2.25;;;16.30;99.90;;;;;;5071315;28;20039;-30
2022/10/22 00:20:50;;;;;;;4.32;1.67;;;16.30;99.90;;;;;;5070593;28;20033;-31
2022/10/22 00:23:16;;;;;;;5.13;2.15;;;16.40;99.90;;;;;;5070494;28;20025;-30
2022/10/22 00:25:41;;;;;;;2.72;1.65;;;16.30;99.90;;;;;;5071702;28;20523;-31
2022/10/22 00:28:07;;;;;;;4.75;1.95;;;16.30;99.90;;;;;;5075975;28;20028;-34
2022/10/22 00:30:33;;;;;;;4.07;2.33;;;16.10;99.90;;;;;;5075922;28;20017;-33
2022/10/22 00:32:58;;;;;;;4.07;2.05;;;16.20;99.90;;;;;;5073809;28;20032;-31
2022/10/22 00:35:24;;;;;;;2.47;2.00;;;16.10;99.90;;;;;;5074741;28;20097;-30
2022/10/22 00:37:49;;;;;;;10.98;3.50;;;16.10;99.90;;;;;;5073753;28;20024;-44
2022/10/22 00:40:15;;;;;;;6.18;2.47;;;16.10;99.90;;;;;;5075671;28;20556;-30
2022/10/22 00:42:40;;;;;;;2.88;2.15;;;16.00;99.90;;;;;;5073603;28;20033;-37
2022/10/22 00:45:06;;;;;;;7.05;2.38;;;16.00;99.90;;;;;;5090891;28;20024;-32
2022/10/22 00:47:55;;;;;;;4.80;2.67;;;16.00;99.90;;;;;;5071502;28;20070;-31
2022/10/22 00:50:30;;;;;;;8.68;1.90;;;15.90;99.90;;;;;;5064983;28;20097;-40
2022/10/22 00:52:56;;;;;;;2.72;2.03;;;15.80;99.90;;;;;;5072959;28;20074;-40
2022/10/22 00:55:24;;;;;;;3.47;2.28;;;15.80;99.90;;;;;;5069147;28;20025;-39
2022/10/22 00:57:51;;;;;;;2.78;1.73;;;15.70;99.90;;;;;;5062139;28;20384;-39
2022/10/22 01:00:17;;;;;;;7.90;2.17;;;15.80;99.90;;;;;;5073845;28;20507;-39
2022/10/22 01:02:43;;;;;;;2.47;2.20;;;15.70;99.90;;;;;;5076050;28;20017;-39
2022/10/22 01:05:09;;;;;;;7.43;3.05;;;15.70;99.90;;;;;;5074193;28;20048;-38
2022/10/22 01:07:57;;;;;;;6.38;2.88;;;15.70;99.90;;;;;;5072137;28;20384;-39
2022/10/22 01:10:46;;;;;;;4.57;2.72;;;15.70;99.90;;;;;;5071556;28;20539;-32
2022/10/22 01:13:26;;;;;;;4.00;2.45;;;15.60;99.90;;;;;;5071698;28;20035;-35
2022/10/22 01:16:18;;;;;;;8.10;2.30;;;15.60;99.90;;;;;;5071622;28;20108;-34
2022/10/22 01:18:47;;;;;;;9.25;2.63;;;15.60;99.90;;;;;;5073061;28;20029;-32
2022/10/22 01:21:31;;;;;;;17.88;2.80;;;15.60;99.90;;;;;;5069038;28;20551;-32
2022/10/22 01:24:15;;;;;;;11.23;3.10;;;15.60;99.90;;;;;;5073724;28;20028;-33
2022/10/22 01:27:04;;;;;;;3.40;2.75;;;15.60;99.90;;;;;;5073915;28;20029;-35
2022/10/22 01:29:54;;;;;;;10.35;2.72;;;15.70;99.90;;;;;;5072924;28;20386;-53
2022/10/22 01:32:24;;;;;;;10.52;2.45;;;15.80;99.90;;;;;;5073722;28;20024;-31
2022/10/22 01:35:00;;;;;;;8.05;2.55;;;15.80;99.90;;;;;;5072761;28;20457;-37
2022/10/22 01:37:29;;;;;;;9.98;2.70;;;15.80;99.90;;;;;;5070998;28;20024;-30
2022/10/22 01:39:57;;;;;;;4.38;2.20;;;15.80;99.90;;;;;;5074644;28;20380;-32
2022/10/22 01:42:23;;;;;;;6.03;2.45;;;15.90;99.90;;;;;;5072382;28;20024;-30
2022/10/22 01:44:49;;;;;;;2.88;2.20;;;15.90;99.90;;;;;;5071952;28;20079;-49
2022/10/22 01:47:33;;;;;;;5.85;2.58;;;15.90;99.90;;;;;;5070907;28;20025;-32
2022/10/22 01:50:16;;;;;;;3.95;2.22;;;15.90;99.90;;;;;;5069479;28;20473;-54
2022/10/22 01:52:53;;;;;;;6.72;2.80;;;16.00;99.90;;;;;;5070319;28;20406;-36
2022/10/22 01:55:43;;;;;;;8.45;2.67;;;16.00;99.90;;;;;;5072915;28;20131;-30
2022/10/22 01:58:27;;;;;;;8.13;1.90;;;16.00;99.90;;;;;;5068154;28;20039;-32
2022/10/22 02:01:17;;;;;;;11.05;1.92;;;15.90;99.90;;;;;;5069738;28;20384;-31
2022/10/22 02:03:50;;;;;;;3.38;1.67;;;16.00;99.90;;;;;;5071181;28;20033;-34
2022/10/22 02:06:21;;;;;;;7.10;2.58;;;16.00;99.90;;;;;;5064992;28;20127;-40
2022/10/22 02:08:49;;;;;;;6.45;2.35;;;16.00;99.90;;;;;;5068976;28;20040;-38
2022/10/22 02:11:15;;;;;;;6.13;2.10;;;16.00;99.90;;;;;;5073056;28;20384;-40
2022/10/22 02:13:47;;;;;;;4.40;2.30;;;16.00;99.90;;;;;;5069695;28;20036;-32
2022/10/22 02:16:20;;;;;;;8.10;2.25;;;15.90;99.90;;;;;;5072913;28;20036;-39
2022/10/22 02:18:49;;;;;;;1.60;1.48;;;15.80;99.90;;;;;;5071298;28;20554;-39
2022/10/22 02:21:15;;;;;;;10.27;2.70;;;15.80;99.90;;;;;;5072967;28;20108;-40
2022/10/22 02:23:40;;;;;;;5.78;1.92;;;15.80;99.90;;;;;;5073843;28;20100;-38
2022/10/22 02:26:14;;;;;;;7.05;2.03;;;15.80;99.90;;;;;;5073700;28;20055;-38
2022/10/22 02:28:58;;;;;;;10.23;2.22;;;15.80;99.90;;;;;;5073850;28;20503;-40
2022/10/22 02:31:28;;;;;;;8.07;2.10;;;15.80;99.90;;;;;;5074777;28;20388;-40
2022/10/22 02:33:57;;;;;;;2.05;1.95;;;15.70;99.90;;;;;;5072806;28;20036;-40
2022/10/22 02:36:24;;;;;;;3.97;1.85;;;15.70;99.90;;;;;;5072597;28;20427;-40
2022/10/22 02:38:51;;;;;;;16.70;2.50;;;15.60;99.90;;;;;;5073517;28;20024;-39
2022/10/22 02:41:18;;;;;;;6.57;2.55;;;15.70;99.90;;;;;;5069879;28;20452;-41
2022/10/22 02:43:50;;;;;;;7.38;1.80;;;15.60;99.90;;;;;;5070127;28;20070;-55
2022/10/22 02:46:16;;;;;;;6.20;2.10;;;15.60;99.90;;;;;;5077722;28;20485;-41
2022/10/22 02:48:41;;;;;;;6.07;2.22;;;15.60;99.90;;;;;;5071727;28;20021;-39
2022/10/22 02:51:07;;;;;;;4.55;1.85;;;15.50;99.90;;;;;;5073548;28;20462;-40
2022/10/22 02:53:32;;;;;;;9.68;2.30;;;15.50;99.90;;;;;;5072645;28;20024;-33
2022/10/22 02:55:59;;;;;;;6.68;2.08;;;15.60;99.90;;;;;;5071310;28;20025;-30
2022/10/22 02:58:24;;;;;;;6.03;2.15;;;15.50;99.90;;;;;;5073323;28;20074;-31
2022/10/22 03:00:50;;;;;;;6.70;2.40;;;15.50;99.90;;;;;;5093296;28;20056;-31
2022/10/22 03:03:16;;;;;;;5.25;2.33;;;15.50;99.90;;;;;;5071617;28;20085;-33
2022/10/22 03:05:41;;;;;;;2.75;1.83;;;15.60;99.90;;;;;;5071744;28;20059;-32
2022/10/22 03:08:07;;;;;;;6.75;3.28;;;15.60;99.90;;;;;;5072022;28;20064;-29
2022/10/22 03:10:32;;;;;;;4.25;2.15;;;15.60;99.90;;;;;;5070781;28;20020;-30
2022/10/22 03:12:58;;;;;;;5.38;2.17;;;15.60;99.90;;;;;;5070730;28;20025;-31
2022/10/22 03:15:24;;;;;;;5.43;1.80;;;15.60;99.90;;;;;;5072075;28;20492;-42
2022/10/22 03:17:49;;;;;;;7.38;2.20;;;15.60;99.90;;;;;;5071013;28;20024;-29
2022/10/22 03:20:15;;;;;;;6.07;1.90;;;15.60;99.90;;;;;;5069307;28;20025;-30
2022/10/22 03:22:42;;;;;;;5.90;1.75;;;15.50;99.90;;;;;;5070908;28;20495;-32
2022/10/22 03:25:13;;;;;;;13.65;3.08;;;15.50;99.90;;;;;;5070090;28;20024;-31
2022/10/22 03:27:40;;;;;;;3.42;1.95;;;15.50;99.90;;;;;;5070872;28;20492;-31
2022/10/22 03:30:07;;;;;;;10.10;2.22;;;15.50;99.90;;;;;;5070859;28;20481;-30
2022/10/22 03:32:33;;;;;;;5.93;2.03;;;15.40;99.90;;;;;;5070883;28;20032;-33
2022/10/22 03:34:59;;;;;;;6.15;2.22;;;15.40;99.90;;;;;;5069058;28;20032;-32
2022/10/22 03:37:25;;;;;;;9.13;2.17;;;15.40;99.90;;;;;;5069737;28;20492;-29
2022/10/22 03:39:52;;;;;;;8.88;2.35;;;15.40;99.90;;;;;;5071013;28;20488;-51
2022/10/22 03:42:18;;;;;;;18.65;2.53;;;15.30;99.90;;;;;;5071607;28;20542;-36
2022/10/22 03:44:44;;;;;;;14.70;3.30;;;15.30;99.90;;;;;;5070644;28;20056;-29
2022/10/22 03:47:11;;;;;;;4.18;2.22;;;15.20;99.90;;;;;;5070759;28;20493;-32
2022/10/22 03:49:36;;;;;;;5.43;1.90;;;15.20;99.90;;;;;;5070620;28;20033;-31
2022/10/22 03:52:10;;;;;;;8.43;2.30;;;15.10;99.90;;;;;;5071406;28;20036;-30
2022/10/22 03:54:39;;;;;;;3.92;2.28;;;15.10;99.90;;;;;;5071007;28;20036;-29
2022/10/22 03:57:05;;;;;;;4.55;2.20;;;15.10;99.90;;;;;;5071615;28;20025;-29
2022/10/22 03:59:35;;;;;;;7.40;2.42;;;15.10;99.90;;;;;;5069756;28;20504;-30
2022/10/22 04:02:01;;;;;;;8.38;2.38;;;15.10;99.90;;;;;;5072552;28;20046;-29
2022/10/22 04:04:26;;;;;;;8.23;2.65;;;15.10;99.90;;;;;;5074535;28;20040;-48
2022/10/22 04:06:52;;;;;;;9.68;1.98;;;15.00;99.90;;;;;;5075192;28;20090;-29
2022/10/22 04:09:17;;;;;;;3.80;2.40;;;15.00;99.90;;;;;;5074737;28;20063;-29
2022/10/22 04:11:43;;;;;;;3.83;1.85;;;15.00;99.90;;;;;;5074208;28;20055;-38
2022/10/22 04:14:10;;;;;;;4.68;2.17;;;15.00;99.90;;;;;;5076162;28;20074;-32
2022/10/22 04:16:38;;;;;;;9.18;2.20;;;14.90;99.90;;;;;;5074621;28;20565;-36
2022/10/22 04:19:04;;;;;;;;;;;15.00;99.90;;;;;;5075424;28;20040;-29
2022/10/22 04:21:30;;;;;;;5.22;1.83;;;15.00;99.90;;;;;;5074044;28;19917;-29
2022/10/22 04:23:56;;;;;;;8.02;1.80;;;15.00;99.90;;;;;;5064175;28;20473;-30
2022/10/22 04:26:21;;;;;;;5.55;1.88;;;15.00;99.90;;;;;;5072492;28;20472;-34
2022/10/22 04:28:48;;;;;;;8.32;2.70;;;15.00;99.90;;;;;;5075930;28;20081;-29
2022/10/22 04:31:20;;;;;;;6.03;1.88;;;15.00;99.90;;;;;;5073644;28;20119;-31
2022/10/22 04:33:46;;;;;;;8.27;2.22;;;15.00;99.90;;;;;;5074275;28;20060;-31
2022/10/22 04:36:17;;;;;;;4.03;1.90;;;15.10;99.90;;;;;;5074001;28;20066;-34
2022/10/22 04:38:44;;;;;;;3.97;2.05;;;15.10;99.90;;;;;;5074918;28;20037;-31
2022/10/22 04:41:18;;;;;;;6.25;2.28;;;15.10;99.90;;;;;;5075041;28;20032;-30
2022/10/22 04:43:44;;;;;;;9.55;1.95;;;15.10;99.90;;;;;;5074657;28;20489;-31
2022/10/22 04:46:11;;;;;;;8.75;1.75;;;15.20;99.90;;;;;;5074014;28;20103;-39
2022/10/22 04:48:39;;;;;;;5.90;2.15;;;15.10;99.90;;;;;;5072692;28;20052;-35
2022/10/22 04:51:06;;;;;;;5.63;2.17;;;15.10;99.90;;;;;;5074046;28;20063;-40
2022/10/22 04:53:35;;;;;;;3.97;1.85;;;15.10;99.90;;;;;;5074457;28;20047;-33
2022/10/22 04:56:15;;;;;;;3.10;2.00;;;15.10;99.90;;;;;;5073632;28;20510;-34
2022/10/22 04:58:42;;;;;;;5.53;1.60;;;15.20;99.90;;;;;;5072214;28;20037;-44
2022/10/22 05:01:13;;;;;;;3.97;1.80;;;15.20;99.90;;;;;;5073469;28;20025;-32
2022/10/22 05:03:39;;;;;;;4.40;2.25;;;15.20;99.90;;;;;;5067911;28;20284;-31
2022/10/22 05:06:05;;;;;;;9.20;1.88;;;15.20;99.90;;;;;;5064975;28;20038;-29
2022/10/22 05:08:31;;;;;;;8.57;2.13;;;15.10;99.90;;;;;;5071291;28;20465;-35
2022/10/22 05:10:56;;;;;;;5.57;1.70;;;15.10;99.90;;;;;;5071968;28;20094;-30
2022/10/22 05:13:22;;;;;;;5.90;2.40;;;15.10;99.90;;;;;;5070341;28;20025;-33
2022/10/22 05:15:48;;;;;;;11.52;3.60;;;15.10;99.90;;;;;;5073334;28;20532;-34
2022/10/22 05:18:13;;;;;;;9.95;1.90;;;15.10;99.90;;;;;;5074186;28;20107;-32
2022/10/22 05:20:42;;;;;;;3.95;1.92;;;15.10;99.90;;;;;;5070699;28;20461;-35
2022/10/22 05:23:08;;;;;;;8.40;1.70;;;15.00;99.90;;;;;;5075989;28;20036;-29
2022/10/22 05:25:39;;;;;;;7.38;2.25;;;15.10;99.90;;;;;;5074470;28;20495;-39
2022/10/22 05:28:05;;;;;;;4.50;2.17;;;15.10;99.90;;;;;;5069226;28;20481;-31
2022/10/22 05:30:30;;;;;;;8.90;2.53;;;15.00;99.90;;;;;;5073015;28;20033;-31
2022/10/22 05:32:56;;;;;;;4.30;1.70;;;15.00;99.90;;;;;;5072245;28;20448;-30
2022/10/22 05:35:22;;;;;;;8.73;2.45;;;15.00;99.90;;;;;;5073755;28;20491;-30
2022/10/22 05:37:47;;;;;;;9.65;1.58;;;15.00;99.90;;;;;;5072074;28;20040;-29
2022/10/22 05:40:13;;;;;;;6.25;1.73;;;15.00;99.90;;;;;;5072614;28;20024;-29
2022/10/22 05:42:39;;;;;;;5.50;1.75;;;15.00;99.90;;;;;;5071404;28;20016;-31
2022/10/22 05:45:05;;;;;;;5.60;1.80;;;15.00;99.90;;;;;;5073555;28;20020;-29
2022/10/22 05:47:30;;;;;;;8.98;2.50;;;15.00;99.90;;;;;;5072876;28;20465;-31
2022/10/22 05:49:56;;;;;;;7.72;1.90;;;15.00;99.90;;;;;;5073535;28;20032;-38
2022/10/22 05:52:23;;;;;;;2.22;1.45;;;15.00;99.90;;;;;;5071960;28;20550;-38
2022/10/22 05:54:48;;;;;;;10.25;1.75;;;15.00;99.90;;;;;;5067960;28;20039;-31
2022/10/22 05:57:14;;;;;;;4.13;1.88;;;15.00;99.90;;;;;;5073637;28;20388;-29
2022/10/22 05:59:39;;;;;;;8.20;1.90;;;15.00;99.90;;;;;;5070378;28;20039;-30
2022/10/22 06:02:07;;;;;;;6.60;1.85;;;14.90;99.90;;;;;;5070516;28;20029;-29
2022/10/22 06:04:33;;;;;;;;;;;14.90;99.90;;;;;;5071850;28;20066;-29
2022/10/22 06:06:58;;;;;;;8.73;1.85;;;14.90;99.90;;;;;;5073027;28;20290;-33
2022/10/22 06:09:29;;;;;;;8.20;2.00;;;14.90;99.90;;;;;;5075679;28;20059;-31
2022/10/22 06:11:56;;;;;;;11.05;2.10;;;14.90;99.90;;;;;;5073894;28;20037;-30
2022/10/22 06:14:21;;;;;;;6.45;2.33;;;14.90;99.90;;;;;;5073054;28;20108;-29
2022/10/22 06:16:48;;;;;;;10.73;1.83;;;14.90;99.90;;;;;;5071281;28;20119;-29
2022/10/22 06:19:16;;;;;;;7.18;1.77;;;14.90;99.90;;;;;;5070333;28;20477;-31
2022/10/22 06:21:42;;;;;;;6.60;1.92;;;14.90;99.90;;;;;;5071729;28;20044;-30
2022/10/22 06:24:09;;;;;;;4.78;1.80;;;14.90;99.90;;;;;;5070767;28;20020;-30
2022/10/22 06:26:35;;;;;;;4.63;1.77;;;14.90;99.90;;;;;;5072631;28;20036;-33
2022/10/22 06:29:01;;;;;;;5.13;1.75;;;14.90;99.90;;;;;;5070599;28;20032;-32
2022/10/22 06:31:28;;;;;;;5.05;1.60;;;14.90;99.90;;;;;;5070110;28;20032;-41
2022/10/22 06:33:55;;;;;;;7.28;2.00;;;14.90;99.90;;;;;;5053556;28;20081;-30
2022/10/22 06:36:22;;;;;;;7.07;3.28;;;14.80;99.90;;;;;;5059107;28;20040;-35
2022/10/22 06:38:52;;;;;;;7.63;1.73;;;14.90;99.90;;;;;;5071953;28;20480;-30
2022/10/22 06:41:17;;;;;;;7.20;2.17;;;14.90;99.90;;;;;;5068260;28;20039;-31
2022/10/22 06:43:45;;;;;;;3.92;1.77;;;14.90;99.90;;;;;;5071497;28;20021;-30
2022/10/22 06:46:13;;;;;;;7.05;2.03;;;14.90;99.90;;;;;;5072536;28;20021;-29
2022/10/22 06:48:39;;;;;;;9.23;1.50;;;14.90;99.90;;;;;;5069956;28;20043;-31
2022/10/22 06:51:07;;;;;;;11.73;1.50;;;14.90;99.90;;;;;;5070709;28;20028;-32
2022/10/22 06:53:34;;;;;;;8.48;1.90;;;15.00;99.90;;;;;;5071486;28;20560;-29
2022/10/22 06:56:05;;;;;;;4.03;1.60;;;15.00;99.90;;;;;;5072112;28;20068;-31
2022/10/22 06:58:30;;;;;;;14.80;2.72;;;15.00;99.90;;;;;;5068149;28;20429;-31
2022/10/22 07:01:05;;;;;;;5.60;1.83;;;15.00;99.90;;;;;;5069154;28;20131;-30
2022/10/22 07:03:31;;;;;;;4.05;1.77;;;15.00;99.90;;;;;;5069291;28;20043;-31
2022/10/22 07:06:01;;;;;;;11.00;1.88;;;15.10;99.90;;;;;;5069944;28;20056;-29
2022/10/22 07:08:28;;;;;;;6.50;1.50;;;15.20;99.90;;;;;;5069205;28;20032;-31
2022/10/22 07:10:54;;;;;;;2.85;1.60;;;15.30;99.90;;;;;;5068790;28;20392;-30
2022/10/22 07:13:20;;;;;;;7.45;2.20;;;15.30;99.90;;;;;;5071959;28;20028;-31
2022/10/22 07:15:50;;;;;;;6.32;1.70;;;15.40;99.90;;;;;;5071131;28;20099;-32
2022/10/22 07:18:16;;;;;;;6.65;2.00;;;15.50;99.90;;;;;;5071947;28;20067;-29
2022/10/22 07:20:41;;;;;;;6.35;2.08;;;15.50;99.90;;;;;;5071887;28;20481;-29
2022/10/22 07:23:07;;;;;;;6.85;1.55;;;15.50;99.90;;;;;;5070862;28;20039;-34
2022/10/22 07:25:32;;;;;;;7.22;1.60;;;15.60;99.90;;;;;;5064399;28;20116;-30
2022/10/22 07:27:58;;;;;;;7.30;2.33;;;15.60;99.90;;;;;;5066734;28;20066;-29
2022/10/22 07:30:23;;;;;;;9.07;2.33;;;15.70;99.90;;;;;;5068414;28;20023;-31
2022/10/22 07:32:49;;;;;;;7.95;2.10;;;15.70;99.90;;;;;;5071541;28;20020;-31
2022/10/22 07:35:15;;;;;;;13.95;2.58;;;15.70;99.90;;;;;;5073420;28;20020;-31
2022/10/22 07:37:40;;;;;;;5.57;1.55;;;15.70;99.90;;;;;;5077984;28;20024;-29
2022/10/22 07:40:06;;;;;;;8.52;1.70;;;15.70;99.90;;;;;;5071126;28;20476;-34
2022/10/22 07:42:32;;;;;;;4.50;1.70;;;15.70;99.90;;;;;;5065621;28;20033;-29
2022/10/22 07:44:58;;;;;;;5.05;1.63;;;15.70;99.90;;;;;;5069917;28;20031;-29
2022/10/22 07:47:23;;;;;;;5.63;1.40;;;15.70;99.90;;;;;;5071490;28;20477;-32
2022/10/22 07:49:49;;;;;;;7.60;1.70;;;15.80;99.90;;;;;;5069712;28;20107;-46
2022/10/22 07:52:14;;;;;;;8.77;1.60;;;15.80;99.90;;;;;;5070648;28;20036;-30
2022/10/22 07:54:40;;;;;;;4.85;1.60;;;15.90;99.90;;;;;;5072498;28;20390;-29
2022/10/22 07:57:06;;;;;;;7.30;1.73;;;15.90;99.90;;;;;;5070338;28;20070;-34
2022/10/22 07:59:31;;;;;;;6.50;1.58;;;16.00;99.90;;;;;;5068395;28;20468;-32
2022/10/22 08:01:57;;;;;;;7.20;1.63;;;16.10;99.90;;;;;;5068754;28;20029;-34
2022/10/22 08:04:22;;;;;;;7.82;2.03;;;16.10;99.90;;;;;;5068876;28;20090;-30
2022/10/22 08:06:48;;;;;;;5.45;1.52;;;16.10;99.90;;;;;;5070323;28;20082;-31
2022/10/22 08:09:14;;;;;;;3.72;1.15;;;16.10;99.90;;;;;;5069747;28;20094;-30
2022/10/22 08:11:39;;;;;;;13.48;2.28;;;16.10;99.90;;;;;;5069621;28;20147;-30
2022/10/22 08:14:05;;;;;;;5.25;1.20;;;16.10;99.90;;;;;;5067604;28;20036;-30
2022/10/22 08:16:31;;;;;;;7.65;1.50;;;16.10;99.90;;;;;;5069291;28;20082;-30
2022/10/22 08:18:56;;;;;;;5.07;1.60;;;16.10;99.90;;;;;;5067892;28;20032;-31
2022/10/22 08:21:25;;;;;;;9.57;1.55;;;16.10;99.90;;;;;;5068454;28;20553;-32
2022/10/22 08:23:51;;;;;;;5.28;2.50;;;16.00;99.90;;;;;;5070411;28;20104;-33
2022/10/22 08:26:17;;;;;;;9.73;1.45;;;16.10;99.90;;;;;;5071430;28;20107;-31
2022/10/22 08:28:42;;;;;;;9.90;2.15;;;16.10;99.90;;;;;;5070324;28;20032;-30
2022/10/22 08:31:09;;;;;;;6.38;1.45;;;16.10;99.90;;;;;;5071130;28;20063;-29
2022/10/22 08:33:35;;;;;;;4.03;1.45;;;16.10;99.90;;;;;;5069204;28;20055;-34
2022/10/22 08:36:00;;;;;;;7.25;1.60;;;16.20;99.90;;;;;;5070708;28;20036;-31
2022/10/22 08:38:26;;;;;;;12.52;2.08;;;16.30;99.90;;;;;;5070378;28;20021;-33
2022/10/22 08:40:55;;;;;;;4.25;1.40;;;16.30;99.90;;;;;;5066086;28;21378;-30
2022/10/22 08:43:43;;;;;;;9.82;1.98;;;16.20;99.90;;;;;;5063965;28;20473;-36
2022/10/22 08:46:43;;;;;;;8.75;2.60;;;16.20;99.90;;;;;;5065336;28;20107;-33
2022/10/22 08:49:22;;;;;;;6.68;2.05;;;16.30;99.90;;;;;;5042081;28;20040;-30
2022/10/22 08:51:48;;;;;;;9.02;1.33;;;16.30;99.90;;;;;;5071252;28;20060;-31
2022/10/22 08:54:32;;;;;;;7.35;1.50;;;16.40;99.90;;;;;;5072205;28;20024;-31
2022/10/22 08:57:12;;;;;;;9.57;1.52;;;16.40;99.90;;;;;;5072950;28;20173;-29
2022/10/22 09:00:06;;;;;;;6.95;1.30;;;16.50;99.90;;;;;;5074251;28;20043;-29
2022/10/22 09:02:32;;;;;;;3.45;1.25;;;16.50;99.90;;;;;;5071945;28;20029;-29
2022/10/22 09:05:18;;;;;;;6.65;1.70;;;16.60;99.90;;;;;;5075197;28;20056;-30
2022/10/22 09:07:49;;;;;;;5.90;1.60;;;16.70;99.90;;;;;;5081703;28;20025;-30
2022/10/22 09:10:15;;;;;;;3.60;0.95;;;16.80;99.90;;;;;;5070532;28;20023;-29
2022/10/22 09:12:41;;;;;;;10.43;1.52;;;16.80;99.90;;;;;;5073385;28;20154;-30
2022/10/22 09:15:12;;;;;;;4.57;1.38;;;16.90;99.90;;;;;;5067972;28;20544;-29
2022/10/22 09:17:43;;;;;;;7.57;1.70;;;16.90;99.90;;;;;;5065285;28;20032;-29
2022/10/22 09:20:27;;;;;;;6.45;1.50;;;16.90;99.90;;;;;;5067607;28;20033;-31
2022/10/22 09:23:02;;;;;;;7.10;1.50;;;16.90;99.90;;;;;;5073722;28;20508;-32
2022/10/22 09:25:32;;;;;;;8.18;1.65;;;16.90;99.90;;;;;;5073722;28;20063;-34
2022/10/22 09:27:58;;;;;;;11.55;2.25;;;17.00;99.90;;;;;;5073640;28;20013;-32
2022/10/22 09:30:27;;;;;;;6.25;1.30;;;17.00;99.90;;;;;;5070548;28;20350;-34
2022/10/22 09:33:14;;;;;;;1.92;1.17;;;17.10;99.90;;;;;;5074182;28;20021;-33
2022/10/22 09:36:02;;;;;;;9.10;1.63;;;17.10;99.90;;;;;;5072605;28;20032;-31
2022/10/22 09:38:30;;;;;;;8.02;1.80;;;17.10;99.90;;;;;;5073103;28;20361;-31
2022/10/22 09:40:58;;;;;;;6.70;1.77;;;17.20;99.90;;;;;;5073532;28;20025;-30
2022/10/22 09:43:23;;;;;;;6.97;2.53;;;17.20;99.90;;;;;;5072388;28;20085;-42
2022/10/22 09:45:59;;;;;;;5.53;1.13;;;17.20;99.90;;;;;;5074570;28;20024;-41
2022/10/22 09:48:33;;;;;;;6.00;1.98;;;17.20;99.90;;;;;;5073102;28;20480;-41
2022/10/22 09:51:16;;;;;;;12.13;2.15;;;17.10;99.90;;;;;;5073500;28;20033;-41
2022/10/22 09:53:46;;;;;;;7.20;1.67;;;17.10;99.90;;;;;;5069613;28;20503;-39
2022/10/22 09:56:38;;;;;;;6.45;1.33;;;17.10;99.90;;;;;;5073600;28;20499;-44
2022/10/22 09:59:03;;;;;;;5.22;1.10;;;17.10;99.90;;;;;;5064684;28;20035;-40
2022/10/22 10:01:37;;;;;;;7.13;1.73;;;17.20;99.90;;;;;;5067197;28;20020;-40
2022/10/22 10:04:23;;;;;;;12.77;1.70;;;17.30;99.90;;;;;;5078282;28;20457;-39
2022/10/22 10:06:54;;;;;;;4.18;1.73;;;17.30;99.90;;;;;;5071006;28;20037;-42
2022/10/22 10:09:22;;;;;;;11.35;1.88;;;17.40;99.90;;;;;;5073175;28;20115;-39
2022/10/22 10:12:14;;;;;;;12.10;1.20;;;17.50;99.90;;;;;;5072236;28;20507;-40
2022/10/22 10:14:51;;;;;;;7.55;1.65;;;17.60;99.90;;;;;;5045493;28;20046;-42
2022/10/22 10:17:47;;;;;;;3.50;1.30;;;17.70;99.90;;;;;;5073369;28;20077;-47
2022/10/22 10:20:22;;;;;;;10.57;1.52;;;17.70;99.90;;;;;;5071314;28;20028;-39
2022/10/22 10:23:05;;;;;;;6.28;1.10;;;17.70;99.90;;;;;;5058766;28;20060;-59
2022/10/22 10:25:36;;;;;;;9.15;1.75;;;17.60;99.90;;;;;;5071506;28;20020;-39
2022/10/22 10:28:23;;;;;;;12.15;1.30;;;17.60;99.90;;;;;;5059729;28;20088;-38
2022/10/22 10:31:18;;;;;;;6.53;1.33;;;17.60;99.90;;;;;;5067878;28;20415;-43
2022/10/22 10:34:21;;;;;;;16.67;2.10;;;17.60;99.90;;;;;;5070295;28;20127;-40
2022/10/22 10:37:13;;;;;;;8.93;1.20;;;17.60;99.90;;;;;;5049906;28;20041;-42
2022/10/22 10:40:08;;;;;;;5.45;1.17;;;17.60;99.90;;;;;;5061997;28;20028;-32
2022/10/22 10:42:45;;;;;;;11.48;1.92;;;17.70;99.90;;;;;;5067625;28;20504;-32
2022/10/22 10:45:33;;;;;;;4.82;1.05;;;17.70;99.90;;;;;;5069834;28;20052;-32
2022/10/22 10:48:23;;;;;;;2.42;1.23;;;17.90;99.90;;;;;;5070792;28;20036;-31
2022/10/22 10:51:01;;;;;;;4.68;1.15;;;18.00;99.90;;;;;;5065747;28;20033;-34
2022/10/22 10:53:33;;;;;;;6.10;1.17;;;18.10;99.90;;;;;;5070221;28;20020;-33
2022/10/22 10:56:19;;;;;;;6.90;1.90;;;18.10;99.90;;;;;;5067122;28;20020;-36
2022/10/22 10:59:14;;;;;;;7.40;1.37;;;18.20;99.90;;;;;;5064679;28;20021;-32
2022/10/22 11:01:39;;;;;;;11.43;1.65;;;18.10;99.90;;;;;;5067724;28;20040;-31
2022/10/22 11:04:27;;;;;;;2.60;0.98;;;18.20;99.90;;;;;;5072958;28;20032;-31
2022/10/22 11:06:58;;;;;;;7.22;1.33;;;18.20;99.90;;;;;;5069576;28;20032;-35
2022/10/22 11:09:28;;;;;;;6.05;1.10;;;18.30;99.90;;;;;;5078489;28;20073;-33
2022/10/22 11:12:04;;;;;;;4.30;1.23;;;18.40;99.90;;;;;;5069468;28;20024;-32
2022/10/22 11:14:56;;;;;;;9.95;2.40;;;18.60;99.90;;;;;;5070111;28;20024;-31
2022/10/22 11:17:25;;;;;;;13.68;1.05;;;18.60;99.90;;;;;;5066352;28;20086;-31
2022/10/22 11:20:00;;;;;;;13.00;2.25;;;18.70;99.90;;;;;;5068327;28;20435;-35
2022/10/22 11:22:34;;;;;;;9.60;1.58;;;18.90;99.90;;;;;;5070073;28;20029;-32
2022/10/22 11:25:12;;;;;;;13.55;1.13;;;18.90;99.90;;;;;;5069458;28;20381;-31
2022/10/22 11:27:55;;;;;;;8.38;1.45;;;19.00;99.90;;;;;;5072153;28;20478;-31
2022/10/22 11:30:22;;;;;;;5.68;1.10;;;18.90;99.90;;;;;;5069658;28;20468;-34
2022/10/22 11:32:53;;;;;;;8.07;1.42;;;19.00;99.90;;;;;;5079017;28;20033;-31
2022/10/22 11:35:23;;;;;;;7.53;2.30;;;19.00;99.90;;;;;;5072281;28;20119;-36
2022/10/22 11:37:50;;;;;;;7.88;1.20;;;18.90;99.90;;;;;;5072966;28;20025;-31
2022/10/22 11:40:30;;;;;;;5.05;1.50;;;18.80;99.90;;;;;;5066427;28;20039;-33
2022/10/22 11:43:06;;;;;;;6.22;1.80;;;18.60;99.90;;;;;;5060423;28;20432;-34
2022/10/22 11:45:39;;;;;;;6.63;1.50;;;18.50;99.90;;;;;;5067164;28;20473;-31
2022/10/22 11:48:10;;;;;;;15.43;2.17;;;18.40;99.90;;;;;;5072506;28;20110;-31
2022/10/22 11:50:53;;;;;;;8.30;1.20;;;18.40;99.90;;;;;;5071349;28;20020;-33
2022/10/22 11:53:24;;;;;;;8.75;1.52;;;18.40;99.90;;;;;;5052629;28;20029;-35
2022/10/22 11:56:11;;;;;;;5.22;1.33;;;18.40;99.90;;;;;;5052497;28;20025;-32
2022/10/22 11:58:46;;;;;;;7.20;1.48;;;18.40;99.90;;;;;;5069315;28;20044;-31
2022/10/22 12:01:11;;;;;;;11.10;1.83;;;18.30;99.90;;;;;;5072484;28;20035;-31
2022/10/22 12:03:41;;;;;;;11.98;1.85;;;18.30;99.90;;;;;;5072394;28;20013;-32
2022/10/22 12:06:14;;;;;;;10.75;1.85;;;18.30;99.90;;;;;;5072324;28;20127;-33
2022/10/22 12:09:06;;;;;;;10.48;1.90;;;18.40;99.90;;;;;;5072764;28;20029;-31
2022/10/22 12:11:46;;;;;;;6.47;1.45;;;18.40;99.90;;;;;;5070112;28;20436;-34
2022/10/22 12:14:21;;;;;;;10.45;1.85;;;18.40;99.90;;;;;;5066306;28;20033;-34
2022/10/22 12:17:02;;;;;;;5.95;1.42;;;18.40;99.90;;;;;;5062497;28;20025;-35
2022/10/22 12:19:31;;;;;;;9.82;1.63;;;18.40;99.90;;;;;;5072359;28;20024;-39
2022/10/22 12:22:01;;;;;;;5.85;0.90;;;18.40;99.90;;;;;;5071848;28;20037;-33
2022/10/22 12:24:34;;;;;;;10.15;1.58;;;18.50;99.90;;;;;;5074398;28;20021;-36
2022/10/22 12:26:59;;;;;;;7.75;1.25;;;18.80;99.90;;;;;;5094278;28;20133;-34
2022/10/22 12:29:26;;;;;;;14.82;1.73;;;19.10;99.90;;;;;;5091663;28;20052;-31
2022/10/22 12:31:53;;;;;;;10.65;1.70;;;19.30;99.90;;;;;;5075222;28;20089;-34
2022/10/22 12:34:21;;;;;;;12.85;1.85;;;19.50;99.90;;;;;;5072753;28;20058;-33
2022/10/22 12:36:50;;;;;;;13.48;2.42;;;19.70;99.90;;;;;;5072519;28;20029;-35
2022/10/22 12:39:21;;;;;;;10.40;1.20;;;19.80;99.90;;;;;;5073565;28;20127;-34
2022/10/22 12:41:47;;;;;;;7.63;1.70;;;19.80;99.90;;;;;;5075847;28;20527;-38
2022/10/22 12:44:16;;;;;;;9.95;2.47;;;19.60;99.90;;;;;;5075646;28;20029;-36
2022/10/22 12:46:43;;;;;;;8.27;1.45;;;19.50;99.90;;;;;;5073890;28;20032;-34
2022/10/22 12:49:21;;;;;;;10.07;2.08;;;19.60;99.90;;;;;;5073842;28;20012;-31
2022/10/22 12:51:47;;;;;;;;;;;19.70;99.90;;;;;;5072248;28;20366;-32
2022/10/22 12:54:22;;;;;;;10.40;1.63;;;19.70;99.90;;;;;;5073696;28;20384;-32
2022/10/22 12:56:48;;;;;;;8.95;1.75;;;19.80;99.90;;;;;;5054491;28;20060;-32
2022/10/22 12:59:25;;;;;;;16.40;2.22;;;19.90;99.90;;;;;;5070506;28;20485;-35
2022/10/22 13:01:52;;;;;;;6.00;1.63;;;20.10;99.90;;;;;;5071107;28;20024;-37
2022/10/22 13:04:30;;;;;;;11.63;1.87;;;20.30;99.90;;;;;;5073100;28;20527;-32